Hosei Maru No.7 — JK5642 — position and weather

sailwx.info

Track history (hours):
 
Tides and Currents Weather Stations Pressure Air Temp Water Temp Dewpoint Dewpoint Depression Visibility Wind Speed Wind Dir Waves Ship Positions

Hosei Maru No.7

Last reported at 2017-Dec-11 17:01 UTC. Time now 2017-Dec-14 16:59 UTC.
Position N 35°29' E 139°46'.

Length 60 m; draft 3.8 m.

Type: Tanker. MMSI: 431401974.

Date/timePositionNaut miles runAvg speedWind from/ knotsBaromVisibWave heightAir tempDewpointWater temp
2017-Dec-11 17:01N 35°29' E 139°46'0 0.0
2017-Dec-11 16:30N 35°29' E 139°46'0 0.0
2017-Dec-11 16:00N 35°29' E 139°46'0 0.0
2017-Dec-11 15:29N 35°29' E 139°46'0 0.0
2017-Dec-11 15:00N 35°29' E 139°46'0 0.0
2017-Dec-11 14:30N 35°29' E 139°46'0 0.0
2017-Dec-11 13:59N 35°29' E 139°46'0 0.0
2017-Dec-11 13:30N 35°29' E 139°46'0 0.0
2017-Dec-11 13:00N 35°29' E 139°46'0 0.0
2017-Dec-11 12:31N 35°29' E 139°46'0 0.0
2017-Dec-11 12:00N 35°29' E 139°46'0 0.1
2017-Dec-11 11:30N 35°29' E 139°46'0 0.0
2017-Dec-11 10:59N 35°29' E 139°46'0 0.0
2017-Dec-11 10:30N 35°29' E 139°46'0 0.0
2017-Dec-11 10:00N 35°29' E 139°46'0 0.0
2017-Dec-11 09:30N 35°29' E 139°46'0 0.0
2017-Dec-11 09:00N 35°29' E 139°46'0 0.0
2017-Dec-11 08:30N 35°29' E 139°46'0 0.1
2017-Dec-11 07:58N 35°29' E 139°46'2 4.5
2017-Dec-11 07:30N 35°31' E 139°46'0 0.6
2017-Dec-11 07:00N 35°31' E 139°46'0 0.0
2017-Dec-11 06:30N 35°31' E 139°46'0 0.0
2017-Dec-11 06:01N 35°31' E 139°46'0 0.0
2017-Dec-11 05:30N 35°31' E 139°46'0 1.0
2017-Dec-11 05:00N 35°31' E 139°46'2 4.4
2017-Dec-11 04:30N 35°30' E 139°49'2 3.1
2017-Dec-11 03:59N 35°30' E 139°47'2 4.2
2017-Dec-11 03:30N 35°30' E 139°49'4 7.2
2017-Dec-11 03:00N 35°31' E 139°53'4 7.4
2017-Dec-11 02:30N 35°30' E 139°58'4 7.2
2017-Dec-11 02:00N 35°28' E 140°01'0 0.0
2017-Dec-11 01:30N 35°28' E 140°01'0 0.0
2017-Dec-11 01:00N 35°28' E 140°01'0 0.0
2017-Dec-11 00:30N 35°28' E 140°01'0 0.0
2017-Dec-11 00:00N 35°28' E 140°01'0 0.0
2017-Dec-10 23:30N 35°28' E 140°01'0 0.0
2017-Dec-10 23:00N 35°28' E 140°01'2 3.0
2017-Dec-10 22:29N 35°29' E 139°60'3 6.6
2017-Dec-10 21:59N 35°29' E 139°56'0 0.1
2017-Dec-10 21:29N 35°29' E 139°56'0 0.0
2017-Dec-10 21:00N 35°29' E 139°56'0 0.0
2017-Dec-10 20:30N 35°29' E 139°56'0 0.0
2017-Dec-10 20:00N 35°29' E 139°56'0 0.1
2017-Dec-10 19:30N 35°29' E 139°56'0 0.0
2017-Dec-10 19:00N 35°29' E 139°56'0 0.0
2017-Dec-10 18:30N 35°29' E 139°56'0 0.0
2017-Dec-10 18:00N 35°29' E 139°56'0 0.0
2017-Dec-10 17:30N 35°29' E 139°56'0 0.0
2017-Dec-10 17:00N 35°29' E 139°56'0 0.0
2017-Dec-10 16:29N 35°29' E 139°56'0 0.0
2017-Dec-10 15:59N 35°29' E 139°56'0 0.0
2017-Dec-10 15:30N 35°29' E 139°56'0 0.0
2017-Dec-10 15:00N 35°29' E 139°56'0 0.0
2017-Dec-10 14:29N 35°29' E 139°56'0 0.0
2017-Dec-10 14:00N 35°29' E 139°56'0 0.0
2017-Dec-10 13:29N 35°29' E 139°56'0 0.0
2017-Dec-10 13:00N 35°29' E 139°56'0 0.0
2017-Dec-10 12:30N 35°29' E 139°56'0 0.0
2017-Dec-10 12:00N 35°29' E 139°56'0 0.0
2017-Dec-10 11:30N 35°29' E 139°56'0 0.0
2017-Dec-10 11:01N 35°29' E 139°56'0 0.0
2017-Dec-10 10:30N 35°29' E 139°56'0 0.0
2017-Dec-10 09:57N 35°29' E 139°56'0 0.0
2017-Dec-10 09:30N 35°29' E 139°56'0 0.0
2017-Dec-10 09:01N 35°29' E 139°56'0 0.0
2017-Dec-10 08:29N 35°29' E 139°56'4 7.4
2017-Dec-10 08:00N 35°28' E 139°52'612.3
2017-Dec-10 07:30N 35°24' E 139°46'611.7
2017-Dec-10 07:00N 35°18' E 139°45'611.2
2017-Dec-10 06:30N 35°13' E 139°47'611.8
2017-Dec-10 06:00N 35°07' E 139°45'612.2
2017-Dec-10 05:30N 35°03' E 139°40'712.8
2017-Dec-10 04:59N 34°59' E 139°33'1113.1
2017-Dec-10 04:09N 34°52' E 139°23'312.8
2017-Dec-10 03:56N 34°51' E 139°20'512.7
2017-Dec-10 03:30N 34°47' E 139°15'812.2
2017-Dec-10 02:51N 34°42' E 139°08'412.2
2017-Dec-10 02:30N 34°39' E 139°04'611.3
2017-Dec-10 01:59N 34°36' E 138°58'611.6
2017-Dec-10 01:29N 34°34' E 138°51'1312.6
2017-Dec-10 00:25N 34°32' E 138°35'1012.4
2017-Dec-09 23:37N 34°32' E 138°23'312.5
2017-Dec-09 23:23N 34°32' E 138°19'512.9
2017-Dec-09 22:59N 34°32' E 138°13'162 9.8
2017-Dec-09 06:26N 33°54' E 135°02'512.7
2017-Dec-09 06:00N 33°59' E 135°01'612.0
2017-Dec-09 05:30N 34°05' E 135°00'612.0
2017-Dec-09 05:00N 34°11' E 134°59'611.2
2017-Dec-09 04:30N 34°17' E 134°59'5 9.1
2017-Dec-09 04:00N 34°21' E 135°00'510.5
2017-Dec-09 03:30N 34°25' E 135°04'511.0
2017-Dec-09 03:00N 34°29' E 135°09'611.2
2017-Dec-09 02:30N 34°32' E 135°15'611.3
2017-Dec-09 02:00N 34°36' E 135°19'611.8
2017-Dec-09 01:30N 34°39' E 135°26'1 2.3
2017-Dec-09 01:00N 34°40' E 135°27'0 0.0
2017-Dec-09 00:30N 34°40' E 135°27'0 0.0
2017-Dec-09 00:00N 34°40' E 135°27'0 0.0
2017-Dec-08 23:30N 34°40' E 135°27'0 0.0
2017-Dec-08 23:00N 34°40' E 135°27'1 2.4
2017-Dec-08 22:30N 34°39' E 135°26'4 6.5
2017-Dec-08 21:56N 34°39' E 135°21'0 0.0
2017-Dec-08 21:29N 34°39' E 135°21'0 0.0
2017-Dec-08 20:59N 34°39' E 135°21'0 0.0
2017-Dec-08 20:29N 34°39' E 135°21'0 0.0
2017-Dec-08 19:59N 34°39' E 135°21'0 0.0
2017-Dec-08 19:29N 34°39' E 135°21'0 0.0
2017-Dec-08 18:59N 34°39' E 135°21'0 0.0
2017-Dec-08 18:29N 34°39' E 135°21'0 0.0
2017-Dec-08 17:59N 34°39' E 135°21'0 0.0
2017-Dec-08 17:29N 34°39' E 135°21'0 0.0
2017-Dec-08 16:59N 34°39' E 135°21'0 0.0
2017-Dec-08 16:26N 34°39' E 135°21'0 0.0
2017-Dec-08 15:59N 34°39' E 135°21'0 0.0
2017-Dec-08 15:26N 34°39' E 135°21'0 0.0
2017-Dec-08 14:59N 34°39' E 135°21'0 0.0
2017-Dec-08 14:29N 34°39' E 135°21'0 0.0
2017-Dec-08 13:59N 34°39' E 135°21'0 0.0
2017-Dec-08 13:29N 34°39' E 135°21'0 0.0
2017-Dec-08 12:59N 34°39' E 135°21'0 0.0
2017-Dec-08 12:31N 34°39' E 135°21'510.8
2017-Dec-08 12:01N 34°36' E 135°15'611.9
2017-Dec-08 11:30N 34°35' E 135°08'613.1
2017-Dec-08 11:01N 34°37' E 135°01'713.2
2017-Dec-08 10:30N 34°35' E 134°53'612.5
2017-Dec-08 10:00N 34°32' E 134°46'611.9
2017-Dec-08 09:30N 34°30' E 134°40'12 0.6
2017-Dec-07 13:05N 34°19' E 134°32'112.5
2017-Dec-07 13:00N 34°18' E 134°33'612.6
2017-Dec-07 12:30N 34°14' E 134°39'712.0
2017-Dec-07 11:55N 34°09' E 134°44'511.3
2017-Dec-07 11:30N 34°05' E 134°47'1011.2
2017-Dec-07 10:39N 33°58' E 134°55'511.4
2017-Dec-07 10:13N 33°54' E 134°59'  
2017-Dec-04 09:59N 35°31' E 139°50'0 0.0
2017-Dec-04 09:29N 35°31' E 139°50'0 0.0
2017-Dec-04 08:59N 35°31' E 139°50'0 0.0
2017-Dec-04 08:17N 35°31' E 139°50'0 0.0
2017-Dec-04 07:56N 35°31' E 139°50'0 0.0
2017-Dec-04 07:26N 35°31' E 139°50'0 0.0
2017-Dec-04 06:59N 35°31' E 139°50'0 0.0
2017-Dec-04 06:29N 35°31' E 139°50'0 0.0
2017-Dec-04 05:59N 35°31' E 139°50'0 0.0
2017-Dec-04 05:29N 35°31' E 139°50'0 0.0
2017-Dec-04 04:56N 35°31' E 139°50'0 0.0
2017-Dec-04 04:29N 35°31' E 139°50'0 0.0
2017-Dec-04 03:56N 35°31' E 139°50'0 0.0
2017-Dec-04 03:26N 35°31' E 139°50'0 0.0
2017-Dec-04 02:59N 35°31' E 139°50'1 1.9
2017-Dec-04 02:30N 35°31' E 139°51'611.4
2017-Dec-04 02:00N 35°30' E 139°58'3 5.8
2017-Dec-04 01:30N 35°28' E 140°01'0 0.0
2017-Dec-04 01:00N 35°28' E 140°01'0 0.0
2017-Dec-04 00:30N 35°28' E 140°01'0 0.0
2017-Dec-04 00:00N 35°28' E 140°01'0 0.0
2017-Dec-03 23:30N 35°28' E 140°01'0 0.0
2017-Dec-03 23:00N 35°28' E 140°01'1 2.2
2017-Dec-03 22:30N 35°29' E 140°00'4 7.7
2017-Dec-03 22:00N 35°29' E 139°56'0 0.0
2017-Dec-03 21:30N 35°29' E 139°56'0 0.0
2017-Dec-03 21:00N 35°29' E 139°56'0 0.0
2017-Dec-03 20:30N 35°29' E 139°56'0 0.0
2017-Dec-03 20:00N 35°29' E 139°56'0 0.5
2017-Dec-03 19:30N 35°29' E 139°55'611.2
2017-Dec-03 19:00N 35°27' E 139°49'611.6
2017-Dec-03 18:30N 35°22' E 139°45'611.4
2017-Dec-03 18:00N 35°16' E 139°46'612.1
2017-Dec-03 17:30N 35°10' E 139°47'510.9
2017-Dec-03 17:00N 35°06' E 139°43'611.3
2017-Dec-03 16:31N 35°02' E 139°38'713.1
2017-Dec-03 16:00N 34°57' E 139°32'1113.8
2017-Dec-03 15:13N 34°51' E 139°21'713.7
2017-Dec-03 14:44N 34°47' E 139°15'313.8
2017-Dec-03 14:30N 34°45' E 139°12'713.2
2017-Dec-03 13:59N 34°40' E 139°05'812.8
2017-Dec-03 13:23N 34°36' E 138°58'613.8
2017-Dec-03 12:57N 34°34' E 138°51'1012.8
2017-Dec-03 12:13N 34°34' E 138°39'312.7
2017-Dec-03 11:58N 34°33' E 138°36'713.2
2017-Dec-03 11:25N 34°33' E 138°27'174 5.9
2017-Dec-02 05:57N 33°54' E 135°02'512.3
2017-Dec-02 05:31N 33°59' E 135°01'612.3
2017-Dec-02 04:59N 34°05' E 134°60'612.5
2017-Dec-02 04:30N 34°11' E 134°59'713.5
2017-Dec-02 04:00N 34°18' E 134°59'612.2
2017-Dec-02 03:30N 34°23' E 135°03'612.8
2017-Dec-02 03:00N 34°28' E 135°09'612.4
2017-Dec-02 02:31N 34°32' E 135°14'611.9
2017-Dec-02 02:01N 34°36' E 135°19'612.1
2017-Dec-02 01:30N 34°39' E 135°25'1 2.6
2017-Dec-02 01:00N 34°40' E 135°27'0 0.0
2017-Dec-02 00:30N 34°40' E 135°27'0 0.0
2017-Dec-02 00:00N 34°40' E 135°27'0 0.0
2017-Dec-01 23:31N 34°40' E 135°27'0 0.0
2017-Dec-01 23:00N 34°40' E 135°27'1 1.8
2017-Dec-01 22:30N 34°39' E 135°26'4 7.3
2017-Dec-01 21:59N 34°39' E 135°21'0 0.0
2017-Dec-01 21:29N 34°39' E 135°21'0 0.1
2017-Dec-01 20:59N 34°39' E 135°21'0 0.0
2017-Dec-01 20:29N 34°39' E 135°21'0 0.0
2017-Dec-01 19:59N 34°39' E 135°21'0 0.0
2017-Dec-01 19:29N 34°39' E 135°21'0 0.0
2017-Dec-01 18:59N 34°39' E 135°21'0 0.0
2017-Dec-01 18:26N 34°39' E 135°21'0 0.0
2017-Dec-01 17:56N 34°39' E 135°21'0 0.0
2017-Dec-01 17:29N 34°39' E 135°21'  
Track history (hours):
 
Tides and Currents Weather Stations Pressure Air Temp Water Temp Dewpoint Dewpoint Depression Visibility Wind Speed Wind Dir Waves Ship Positions

Hosei Maru No.7

Last reported at 2017-Dec-11 17:01 UTC. Time now 2017-Dec-14 16:59 UTC.
Position N 35°29' E 139°46'.

Length 60 m; draft 3.8 m.

Type: Tanker. MMSI: 431401974.

Date/timePositionNaut miles runAvg speedWind from/ knotsBaromVisibWave heightAir tempDewpointWater temp
2017-Dec-11 17:01N 35°29' E 139°46'0 0.0
2017-Dec-11 16:30N 35°29' E 139°46'0 0.0
2017-Dec-11 16:00N 35°29' E 139°46'0 0.0
2017-Dec-11 15:29N 35°29' E 139°46'0 0.0
2017-Dec-11 15:00N 35°29' E 139°46'0 0.0
2017-Dec-11 14:30N 35°29' E 139°46'0 0.0
2017-Dec-11 13:59N 35°29' E 139°46'0 0.0
2017-Dec-11 13:30N 35°29' E 139°46'0 0.0
2017-Dec-11 13:00N 35°29' E 139°46'0 0.0
2017-Dec-11 12:31N 35°29' E 139°46'0 0.0
2017-Dec-11 12:00N 35°29' E 139°46'0 0.1
2017-Dec-11 11:30N 35°29' E 139°46'0 0.0
2017-Dec-11 10:59N 35°29' E 139°46'0 0.0
2017-Dec-11 10:30N 35°29' E 139°46'0 0.0
2017-Dec-11 10:00N 35°29' E 139°46'0 0.0
2017-Dec-11 09:30N 35°29' E 139°46'0 0.0
2017-Dec-11 09:00N 35°29' E 139°46'0 0.0
2017-Dec-11 08:30N 35°29' E 139°46'0 0.1
2017-Dec-11 07:58N 35°29' E 139°46'2 4.5
2017-Dec-11 07:30N 35°31' E 139°46'0 0.6
2017-Dec-11 07:00N 35°31' E 139°46'0 0.0
2017-Dec-11 06:30N 35°31' E 139°46'0 0.0
2017-Dec-11 06:01N 35°31' E 139°46'0 0.0
2017-Dec-11 05:30N 35°31' E 139°46'0 1.0
2017-Dec-11 05:00N 35°31' E 139°46'2 4.4
2017-Dec-11 04:30N 35°30' E 139°49'2 3.1
2017-Dec-11 03:59N 35°30' E 139°47'2 4.2
2017-Dec-11 03:30N 35°30' E 139°49'4 7.2
2017-Dec-11 03:00N 35°31' E 139°53'4 7.4
2017-Dec-11 02:30N 35°30' E 139°58'4 7.2
2017-Dec-11 02:00N 35°28' E 140°01'0 0.0
2017-Dec-11 01:30N 35°28' E 140°01'0 0.0
2017-Dec-11 01:00N 35°28' E 140°01'0 0.0
2017-Dec-11 00:30N 35°28' E 140°01'0 0.0
2017-Dec-11 00:00N 35°28' E 140°01'0 0.0
2017-Dec-10 23:30N 35°28' E 140°01'0 0.0
2017-Dec-10 23:00N 35°28' E 140°01'2 3.0
2017-Dec-10 22:29N 35°29' E 139°60'3 6.6
2017-Dec-10 21:59N 35°29' E 139°56'0 0.1
2017-Dec-10 21:29N 35°29' E 139°56'0 0.0
2017-Dec-10 21:00N 35°29' E 139°56'0 0.0
2017-Dec-10 20:30N 35°29' E 139°56'0 0.0
2017-Dec-10 20:00N 35°29' E 139°56'0 0.1
2017-Dec-10 19:30N 35°29' E 139°56'0 0.0
2017-Dec-10 19:00N 35°29' E 139°56'0 0.0
2017-Dec-10 18:30N 35°29' E 139°56'0 0.0
2017-Dec-10 18:00N 35°29' E 139°56'0 0.0
2017-Dec-10 17:30N 35°29' E 139°56'0 0.0
2017-Dec-10 17:00N 35°29' E 139°56'0 0.0
2017-Dec-10 16:29N 35°29' E 139°56'0 0.0
2017-Dec-10 15:59N 35°29' E 139°56'0 0.0
2017-Dec-10 15:30N 35°29' E 139°56'0 0.0
2017-Dec-10 15:00N 35°29' E 139°56'0 0.0
2017-Dec-10 14:29N 35°29' E 139°56'0 0.0
2017-Dec-10 14:00N 35°29' E 139°56'0 0.0
2017-Dec-10 13:29N 35°29' E 139°56'0 0.0
2017-Dec-10 13:00N 35°29' E 139°56'0 0.0
2017-Dec-10 12:30N 35°29' E 139°56'0 0.0
2017-Dec-10 12:00N 35°29' E 139°56'0 0.0
2017-Dec-10 11:30N 35°29' E 139°56'0 0.0
2017-Dec-10 11:01N 35°29' E 139°56'0 0.0
2017-Dec-10 10:30N 35°29' E 139°56'0 0.0
2017-Dec-10 09:57N 35°29' E 139°56'0 0.0
2017-Dec-10 09:30N 35°29' E 139°56'0 0.0
2017-Dec-10 09:01N 35°29' E 139°56'0 0.0
2017-Dec-10 08:29N 35°29' E 139°56'4 7.4
2017-Dec-10 08:00N 35°28' E 139°52'612.3
2017-Dec-10 07:30N 35°24' E 139°46'611.7
2017-Dec-10 07:00N 35°18' E 139°45'611.2
2017-Dec-10 06:30N 35°13' E 139°47'611.8
2017-Dec-10 06:00N 35°07' E 139°45'612.2
2017-Dec-10 05:30N 35°03' E 139°40'712.8
2017-Dec-10 04:59N 34°59' E 139°33'1113.1
2017-Dec-10 04:09N 34°52' E 139°23'312.8
2017-Dec-10 03:56N 34°51' E 139°20'512.7
2017-Dec-10 03:30N 34°47' E 139°15'812.2
2017-Dec-10 02:51N 34°42' E 139°08'412.2
2017-Dec-10 02:30N 34°39' E 139°04'611.3
2017-Dec-10 01:59N 34°36' E 138°58'611.6
2017-Dec-10 01:29N 34°34' E 138°51'1312.6
2017-Dec-10 00:25N 34°32' E 138°35'1012.4
2017-Dec-09 23:37N 34°32' E 138°23'312.5
2017-Dec-09 23:23N 34°32' E 138°19'512.9
2017-Dec-09 22:59N 34°32' E 138°13'162 9.8
2017-Dec-09 06:26N 33°54' E 135°02'512.7
2017-Dec-09 06:00N 33°59' E 135°01'612.0
2017-Dec-09 05:30N 34°05' E 135°00'612.0
2017-Dec-09 05:00N 34°11' E 134°59'611.2
2017-Dec-09 04:30N 34°17' E 134°59'5 9.1
2017-Dec-09 04:00N 34°21' E 135°00'510.5
2017-Dec-09 03:30N 34°25' E 135°04'511.0
2017-Dec-09 03:00N 34°29' E 135°09'611.2
2017-Dec-09 02:30N 34°32' E 135°15'611.3
2017-Dec-09 02:00N 34°36' E 135°19'611.8
2017-Dec-09 01:30N 34°39' E 135°26'1 2.3
2017-Dec-09 01:00N 34°40' E 135°27'0 0.0
2017-Dec-09 00:30N 34°40' E 135°27'0 0.0
2017-Dec-09 00:00N 34°40' E 135°27'0 0.0
2017-Dec-08 23:30N 34°40' E 135°27'0 0.0
2017-Dec-08 23:00N 34°40' E 135°27'1 2.4
2017-Dec-08 22:30N 34°39' E 135°26'4 6.5
2017-Dec-08 21:56N 34°39' E 135°21'0 0.0
2017-Dec-08 21:29N 34°39' E 135°21'0 0.0
2017-Dec-08 20:59N 34°39' E 135°21'0 0.0
2017-Dec-08 20:29N 34°39' E 135°21'0 0.0
2017-Dec-08 19:59N 34°39' E 135°21'0 0.0
2017-Dec-08 19:29N 34°39' E 135°21'0 0.0
2017-Dec-08 18:59N 34°39' E 135°21'0 0.0
2017-Dec-08 18:29N 34°39' E 135°21'0 0.0
2017-Dec-08 17:59N 34°39' E 135°21'0 0.0
2017-Dec-08 17:29N 34°39' E 135°21'0 0.0
2017-Dec-08 16:59N 34°39' E 135°21'0 0.0
2017-Dec-08 16:26N 34°39' E 135°21'0 0.0
2017-Dec-08 15:59N 34°39' E 135°21'0 0.0
2017-Dec-08 15:26N 34°39' E 135°21'0 0.0
2017-Dec-08 14:59N 34°39' E 135°21'0 0.0
2017-Dec-08 14:29N 34°39' E 135°21'0 0.0
2017-Dec-08 13:59N 34°39' E 135°21'0 0.0
2017-Dec-08 13:29N 34°39' E 135°21'0 0.0
2017-Dec-08 12:59N 34°39' E 135°21'0 0.0
2017-Dec-08 12:31N 34°39' E 135°21'510.8
2017-Dec-08 12:01N 34°36' E 135°15'611.9
2017-Dec-08 11:30N 34°35' E 135°08'613.1
2017-Dec-08 11:01N 34°37' E 135°01'713.2
2017-Dec-08 10:30N 34°35' E 134°53'612.5
2017-Dec-08 10:00N 34°32' E 134°46'611.9
2017-Dec-08 09:30N 34°30' E 134°40'12 0.6
2017-Dec-07 13:05N 34°19' E 134°32'112.5
2017-Dec-07 13:00N 34°18' E 134°33'612.6
2017-Dec-07 12:30N 34°14' E 134°39'712.0
2017-Dec-07 11:55N 34°09' E 134°44'511.3
2017-Dec-07 11:30N 34°05' E 134°47'1011.2
2017-Dec-07 10:39N 33°58' E 134°55'511.4
2017-Dec-07 10:13N 33°54' E 134°59'  
2017-Dec-04 09:59N 35°31' E 139°50'0 0.0
2017-Dec-04 09:29N 35°31' E 139°50'0 0.0
2017-Dec-04 08:59N 35°31' E 139°50'0 0.0
2017-Dec-04 08:17N 35°31' E 139°50'0 0.0
2017-Dec-04 07:56N 35°31' E 139°50'0 0.0
2017-Dec-04 07:26N 35°31' E 139°50'0 0.0
2017-Dec-04 06:59N 35°31' E 139°50'0 0.0
2017-Dec-04 06:29N 35°31' E 139°50'0 0.0
2017-Dec-04 05:59N 35°31' E 139°50'0 0.0
2017-Dec-04 05:29N 35°31' E 139°50'0 0.0
2017-Dec-04 04:56N 35°31' E 139°50'0 0.0
2017-Dec-04 04:29N 35°31' E 139°50'0 0.0
2017-Dec-04 03:56N 35°31' E 139°50'0 0.0
2017-Dec-04 03:26N 35°31' E 139°50'0 0.0
2017-Dec-04 02:59N 35°31' E 139°50'1 1.9
2017-Dec-04 02:30N 35°31' E 139°51'611.4
2017-Dec-04 02:00N 35°30' E 139°58'3 5.8
2017-Dec-04 01:30N 35°28' E 140°01'0 0.0
2017-Dec-04 01:00N 35°28' E 140°01'0 0.0
2017-Dec-04 00:30N 35°28' E 140°01'0 0.0
2017-Dec-04 00:00N 35°28' E 140°01'0 0.0
2017-Dec-03 23:30N 35°28' E 140°01'0 0.0
2017-Dec-03 23:00N 35°28' E 140°01'1 2.2
2017-Dec-03 22:30N 35°29' E 140°00'4 7.7
2017-Dec-03 22:00N 35°29' E 139°56'0 0.0
2017-Dec-03 21:30N 35°29' E 139°56'0 0.0
2017-Dec-03 21:00N 35°29' E 139°56'0 0.0
2017-Dec-03 20:30N 35°29' E 139°56'0 0.0
2017-Dec-03 20:00N 35°29' E 139°56'0 0.5
2017-Dec-03 19:30N 35°29' E 139°55'611.2
2017-Dec-03 19:00N 35°27' E 139°49'611.6
2017-Dec-03 18:30N 35°22' E 139°45'611.4
2017-Dec-03 18:00N 35°16' E 139°46'612.1
2017-Dec-03 17:30N 35°10' E 139°47'510.9
2017-Dec-03 17:00N 35°06' E 139°43'611.3
2017-Dec-03 16:31N 35°02' E 139°38'713.1
2017-Dec-03 16:00N 34°57' E 139°32'1113.8
2017-Dec-03 15:13N 34°51' E 139°21'713.7
2017-Dec-03 14:44N 34°47' E 139°15'313.8
2017-Dec-03 14:30N 34°45' E 139°12'713.2
2017-Dec-03 13:59N 34°40' E 139°05'812.8
2017-Dec-03 13:23N 34°36' E 138°58'613.8
2017-Dec-03 12:57N 34°34' E 138°51'1012.8
2017-Dec-03 12:13N 34°34' E 138°39'312.7
2017-Dec-03 11:58N 34°33' E 138°36'713.2
2017-Dec-03 11:25N 34°33' E 138°27'174 5.9
2017-Dec-02 05:57N 33°54' E 135°02'512.3
2017-Dec-02 05:31N 33°59' E 135°01'612.3
2017-Dec-02 04:59N 34°05' E 134°60'612.5
2017-Dec-02 04:30N 34°11' E 134°59'713.5
2017-Dec-02 04:00N 34°18' E 134°59'612.2
2017-Dec-02 03:30N 34°23' E 135°03'612.8
2017-Dec-02 03:00N 34°28' E 135°09'612.4
2017-Dec-02 02:31N 34°32' E 135°14'611.9
2017-Dec-02 02:01N 34°36' E 135°19'612.1
2017-Dec-02 01:30N 34°39' E 135°25'1 2.6
2017-Dec-02 01:00N 34°40' E 135°27'0 0.0
2017-Dec-02 00:30N 34°40' E 135°27'0 0.0
2017-Dec-02 00:00N 34°40' E 135°27'0 0.0
2017-Dec-01 23:31N 34°40' E 135°27'0 0.0
2017-Dec-01 23:00N 34°40' E 135°27'1 1.8
2017-Dec-01 22:30N 34°39' E 135°26'4 7.3
2017-Dec-01 21:59N 34°39' E 135°21'0 0.0
2017-Dec-01 21:29N 34°39' E 135°21'0 0.1
2017-Dec-01 20:59N 34°39' E 135°21'0 0.0
2017-Dec-01 20:29N 34°39' E 135°21'0 0.0
2017-Dec-01 19:59N 34°39' E 135°21'0 0.0
2017-Dec-01 19:29N 34°39' E 135°21'0 0.0
2017-Dec-01 18:59N 34°39' E 135°21'0 0.0
2017-Dec-01 18:26N 34°39' E 135°21'0 0.0
2017-Dec-01 17:56N 34°39' E 135°21'0 0.0
2017-Dec-01 17:29N 34°39' E 135°21'  

Dump ship's entire track history